Time;durP1;ratioP1;P1;durP2;ratioP2;P2;SDS_P1;SDS_P2;PMS_P1;PMS_P2;Temp;Humidity;BMP_temperature;BMP_pressure;BME280_temperature;BME280_humidity;BME280_pressure;Samples;Min_cycle;Max_cycle;Signal;HPM_P1;HPM_P2
2023/08/11 00:01:53;;;;;;;7.82;7.18;;;;;;;15.51;100.00;101542.69;6202526;23;20597;-71
2023/08/11 00:04:19;;;;;;;7.43;6.90;;;;;;;15.40;100.00;101534.56;6172341;23;20020;-73
2023/08/11 00:06:48;;;;;;;8.70;7.25;;;;;;;15.68;100.00;101578.75;6173949;23;20130;-70
2023/08/11 00:09:15;;;;;;;7.15;6.60;;;;;;;15.68;100.00;101576.13;6168565;23;20031;-71
2023/08/11 00:11:41;;;;;;;7.90;7.20;;;;;;;15.53;100.00;101538.16;6200911;23;20593;-70
2023/08/11 00:14:08;;;;;;;7.75;7.05;;;;;;;15.55;100.00;101545.09;6171093;23;20076;-70
2023/08/11 00:16:34;;;;;;;7.00;6.50;;;;;;;14.97;100.00;101445.38;6204489;23;20656;-71
2023/08/11 00:19:01;;;;;;;8.23;7.53;;;;;;;15.73;100.00;101564.31;6209334;23;20052;-71
2023/08/11 00:21:27;;;;;;;9.52;6.57;;;;;;;15.70;100.00;101558.34;6180397;23;20090;-71
2023/08/11 00:23:54;;;;;;;7.53;6.90;;;;;;;15.73;100.00;101556.38;6203045;23;20674;-73
2023/08/11 00:26:20;;;;;;;7.93;6.82;;;;;;;15.80;100.00;101546.28;6208541;23;20040;-71
2023/08/11 00:28:46;;;;;;;7.95;7.22;;;;;;;15.30;100.00;101478.72;6203504;23;20053;-71
2023/08/11 00:31:13;;;;;;;8.00;7.30;;;;;;;15.77;100.00;101545.63;6202355;23;20023;-71
2023/08/11 00:33:41;;;;;;;7.43;6.88;;;;;;;15.75;100.00;101532.47;6206199;22;20035;-71
2023/08/11 00:36:08;;;;;;;9.68;7.50;;;;;;;15.71;100.00;101536.22;6176651;23;20015;-72
2023/08/11 00:38:37;;;;;;;8.40;7.57;;;;;;;15.60;100.00;101525.44;6174296;23;20020;-71
2023/08/11 00:41:05;;;;;;;10.02;7.85;;;;;;;15.56;100.00;101507.09;6199356;23;20008;-71
2023/08/11 00:43:31;;;;;;;7.53;6.82;;;;;;;15.63;100.00;101526.09;6174543;23;20031;-71
2023/08/11 00:46:05;;;;;;;8.27;7.57;;;;;;;15.47;100.00;101509.44;6200771;23;20012;-72
2023/08/11 00:48:32;;;;;;;8.43;7.32;;;;;;;15.68;100.00;101539.91;6187434;23;20487;-72
2023/08/11 00:50:58;;;;;;;7.60;7.00;;;;;;;15.67;100.00;101532.06;6176520;23;20013;-72
2023/08/11 00:53:25;;;;;;;9.00;7.43;;;;;;;15.21;100.00;101472.16;6204139;23;20043;-72
2023/08/11 00:55:54;;;;;;;7.35;6.75;;;;;;;15.33;100.00;101489.09;6200541;23;20023;-72
2023/08/11 00:58:20;;;;;;;7.60;6.75;;;;;;;15.43;100.00;101508.75;6203700;23;20014;-72
2023/08/11 01:00:47;;;;;;;8.35;7.55;;;;;;;15.19;100.00;101471.41;6177560;23;20032;-72
2023/08/11 01:03:13;;;;;;;8.45;7.47;;;;;;;15.27;100.00;101502.69;6178372;23;20011;-72
2023/08/11 01:05:46;;;;;;;7.60;7.00;;;;;;;15.48;100.00;101545.53;6205660;23;20040;-72
2023/08/11 01:08:34;;;;;;;7.72;7.13;;;;;;;14.49;100.00;101378.56;6196076;23;20433;-72
2023/08/11 01:11:28;;;;;;;7.45;6.85;;;;;;;15.47;100.00;101538.53;6199318;23;20095;-72
2023/08/11 01:14:04;;;;;;;7.35;6.55;;;;;;;15.09;100.00;101488.75;6204180;23;20086;-72
2023/08/11 01:16:32;;;;;;;7.20;6.57;;;;;;;14.95;100.00;101498.38;6145585;23;20032;-71
2023/08/11 01:19:00;;;;;;;6.80;6.30;;;;;;;15.22;100.00;101544.44;6202563;23;20047;-72
2023/08/11 01:21:28;;;;;;;11.02;7.05;;;;;;;15.22;100.00;101545.28;6204519;23;20020;-71
2023/08/11 01:23:55;;;;;;;7.05;6.45;;;;;;;15.20;100.00;101538.38;6205362;23;20026;-72
2023/08/11 01:26:21;;;;;;;8.55;6.57;;;;;;;14.98;100.00;101512.34;6203754;23;20024;-72
2023/08/11 01:28:52;;;;;;;7.38;6.70;;;;;;;15.15;100.00;101542.16;6173133;23;20020;-72
2023/08/11 01:31:19;;;;;;;8.98;8.25;;;;;;;14.77;100.00;101488.81;6201248;23;20090;-72
2023/08/11 01:33:45;;;;;;;7.38;6.78;;;;;;;14.86;100.00;101506.81;6169998;23;20027;-72
2023/08/11 01:36:12;;;;;;;7.40;6.72;;;;;;;15.01;100.00;101544.72;6205670;23;20008;-71
2023/08/11 01:38:38;;;;;;;7.60;6.80;;;;;;;15.00;100.00;101543.03;6173728;23;20035;-73
2023/08/11 01:41:06;;;;;;;8.95;7.47;;;;;;;14.01;100.00;101380.41;6204388;23;20079;-71
2023/08/11 01:43:33;;;;;;;7.10;6.50;;;;;;;15.04;100.00;101544.53;6182595;23;20019;-72
2023/08/11 01:46:01;;;;;;;7.43;6.78;;;;;;;15.03;100.00;101542.81;6172882;23;20039;-72
2023/08/11 01:48:30;;;;;;;8.70;6.93;;;;;;;13.36;100.00;101270.56;6197440;23;20008;-71
2023/08/11 01:50:56;;;;;;;7.07;6.53;;;;;;;14.54;100.00;101474.25;6204472;23;20028;-72
2023/08/11 01:53:23;;;;;;;6.65;6.15;;;;;;;14.67;100.00;101500.84;6184183;23;20071;-71
2023/08/11 01:55:50;;;;;;;6.40;5.95;;;;;;;14.46;100.00;101477.31;6200253;23;20530;-71
2023/08/11 01:58:16;;;;;;;8.20;6.90;;;;;;;14.93;100.00;101547.81;6149044;23;20004;-71
2023/08/11 02:00:43;;;;;;;7.05;6.45;;;;;;;14.98;100.00;101534.31;6173895;23;20023;-71
2023/08/11 02:03:09;;;;;;;7.30;6.80;;;;;;;14.69;100.00;101497.22;6200479;23;20387;-71
2023/08/11 02:05:36;;;;;;;7.20;6.60;;;;;;;14.86;100.00;101520.03;6179938;23;20029;-71
2023/08/11 02:08:02;;;;;;;7.20;6.60;;;;;;;12.81;100.00;101189.19;6200951;23;20047;-71
2023/08/11 02:10:29;;;;;;;7.35;6.75;;;;;;;14.85;100.00;101530.66;6202885;23;20029;-71
2023/08/11 02:12:55;;;;;;;7.30;6.70;;;;;;;14.83;100.00;101530.75;6200533;23;20024;-71
2023/08/11 02:15:22;;;;;;;7.20;6.68;;;;;;;14.80;100.00;101527.47;6203457;23;20056;-71
2023/08/11 02:17:48;;;;;;;7.45;6.80;;;;;;;14.63;100.00;101502.81;6199156;23;20087;-71
2023/08/11 02:20:21;;;;;;;7.25;6.68;;;;;;;14.82;100.00;101536.16;6203395;23;20289;-71
2023/08/11 02:22:49;;;;;;;6.90;6.40;;;;;;;14.81;100.00;101529.13;6199120;23;20604;-71
2023/08/11 02:25:16;;;;;;;7.68;7.07;;;;;;;14.09;100.00;101431.88;6197241;23;20033;-71
2023/08/11 02:27:43;;;;;;;7.53;6.82;;;;;;;14.61;100.00;101514.41;6198445;23;20103;-71
2023/08/11 02:30:11;;;;;;;7.22;6.63;;;;;;;14.23;100.00;101454.00;6196661;23;20024;-71
2023/08/11 02:32:41;;;;;;;10.98;7.25;;;;;;;14.74;100.00;101533.94;6179458;23;20028;-71
2023/08/11 02:35:07;;;;;;;7.50;6.90;;;;;;;14.76;100.00;101535.53;6194909;23;20013;-71
2023/08/11 02:37:34;;;;;;;6.70;6.20;;;;;;;14.74;100.00;101542.69;6168799;23;20088;-72
2023/08/11 02:40:00;;;;;;;7.22;6.60;;;;;;;14.28;100.00;101451.94;6171912;23;20028;-71
2023/08/11 02:42:27;;;;;;;7.20;6.50;;;;;;;14.28;100.00;101460.72;6165458;23;20033;-71
2023/08/11 02:44:53;;;;;;;6.95;6.38;;;;;;;14.30;100.00;101469.41;6201425;23;20074;-71
2023/08/11 02:47:19;;;;;;;6.95;6.35;;;;;;;14.34;100.00;101478.84;6198815;23;20078;-72
2023/08/11 02:49:46;;;;;;;6.97;6.47;;;;;;;14.64;100.00;101523.03;6198806;23;20093;-71
2023/08/11 02:52:13;;;;;;;6.93;6.43;;;;;;;14.42;100.00;101472.31;6201219;23;20064;-72
2023/08/11 02:54:39;;;;;;;6.95;6.45;;;;;;;13.86;100.00;101379.50;6201242;23;20012;-71
2023/08/11 02:57:08;;;;;;;7.20;6.70;;;;;;;14.71;100.00;101531.44;6199305;23;20024;-72
2023/08/11 02:59:34;;;;;;;7.10;6.60;;;;;;;14.38;100.00;101476.06;6183874;23;20026;-71
2023/08/11 03:02:02;;;;;;;6.93;6.43;;;;;;;14.33;100.00;101469.25;6195171;23;20525;-70
2023/08/11 03:04:28;;;;;;;6.80;6.30;;;;;;;14.61;100.00;101522.34;6197761;23;20065;-70
2023/08/11 03:06:55;;;;;;;6.50;6.10;;;;;;;14.60;100.00;101532.06;6202461;23;20388;-70
2023/08/11 03:09:21;;;;;;;7.30;6.47;;;;;;;14.56;100.00;101525.25;6196405;23;20038;-70
2023/08/11 03:11:48;;;;;;;6.50;6.00;;;;;;;14.52;100.00;101513.13;6198979;23;20055;-71
2023/08/11 03:14:14;;;;;;;7.28;6.68;;;;;;;14.25;100.00;101482.03;6197909;23;20532;-72
2023/08/11 03:16:41;;;;;;;7.07;6.57;;;;;;;14.54;100.00;101529.72;6204084;23;20143;-71
2023/08/11 03:19:07;;;;;;;7.05;6.47;;;;;;;14.29;100.00;101496.75;6169121;23;20023;-71
2023/08/11 03:21:33;;;;;;;6.75;6.25;;;;;;;14.18;100.00;101475.38;6199054;23;20030;-71
2023/08/11 03:24:00;;;;;;;7.28;6.68;;;;;;;14.46;100.00;101519.59;6197583;23;20026;-71
2023/08/11 03:26:26;;;;;;;7.15;6.65;;;;;;;14.49;100.00;101518.56;6198172;23;20036;-71
2023/08/11 03:28:53;;;;;;;6.68;6.18;;;;;;;14.49;100.00;101515.91;6199876;23;20071;-71
2023/08/11 03:31:19;;;;;;;7.15;6.55;;;;;;;14.22;100.00;101479.53;6203065;23;20059;-72
2023/08/11 03:33:46;;;;;;;6.90;6.30;;;;;;;14.44;100.00;101517.97;6197396;23;20047;-71
2023/08/11 03:36:12;;;;;;;7.00;6.50;;;;;;;14.20;100.00;101488.50;6145844;23;20028;-71
2023/08/11 03:38:39;;;;;;;6.28;5.88;;;;;;;14.39;100.00;101525.28;6197184;23;20486;-72
2023/08/11 03:41:05;;;;;;;6.85;6.35;;;;;;;14.37;100.00;101533.28;6172657;23;20483;-71
2023/08/11 03:43:32;;;;;;;7.00;6.50;;;;;;;14.38;100.00;101531.53;6199742;23;20102;-71
2023/08/11 03:45:58;;;;;;;6.50;6.00;;;;;;;14.32;100.00;101530.06;6172420;23;20020;-72
2023/08/11 03:48:25;;;;;;;7.00;6.50;;;;;;;14.36;100.00;101523.66;6174564;23;20368;-71
2023/08/11 03:50:51;;;;;;;6.60;6.10;;;;;;;14.32;100.00;101525.63;6176434;23;20036;-71
2023/08/11 03:53:18;;;;;;;6.82;6.22;;;;;;;13.68;100.00;101426.19;6196218;23;20020;-71
2023/08/11 03:55:47;;;;;;;6.50;6.07;;;;;;;14.14;100.00;101511.63;6202750;23;20030;-71
2023/08/11 03:58:15;;;;;;;9.07;6.30;;;;;;;12.86;100.00;101289.91;6173692;23;20056;-72
2023/08/11 04:00:41;;;;;;;7.10;6.50;;;;;;;14.13;100.00;101506.44;6168811;23;20083;-71
2023/08/11 04:03:09;;;;;;;6.75;6.10;;;;;;;14.31;100.00;101534.50;6170918;23;20028;-71
2023/08/11 04:05:36;;;;;;;6.82;6.32;;;;;;;14.33;100.00;101532.63;6200483;23;20460;-71
2023/08/11 04:08:04;;;;;;;6.60;6.10;;;;;;;14.18;100.00;101507.03;6200727;23;20032;-72
2023/08/11 04:10:31;;;;;;;8.55;6.25;;;;;;;14.31;100.00;101531.84;6201892;23;20087;-72
2023/08/11 04:12:57;;;;;;;6.38;5.88;;;;;;;14.33;100.00;101531.75;6200905;23;20047;-71
2023/08/11 04:15:24;;;;;;;10.18;6.55;;;;;;;14.04;100.00;101489.31;6194817;23;20024;-70
2023/08/11 04:17:53;;;;;;;6.38;5.88;;;;;;;14.33;100.00;101531.75;6196836;23;20025;-71
2023/08/11 04:20:19;;;;;;;7.05;6.45;;;;;;;13.82;100.00;101463.22;6197955;23;20036;-71
2023/08/11 04:22:45;;;;;;;7.15;6.55;;;;;;;14.48;100.00;101536.19;6196634;23;20023;-71
2023/08/11 04:25:12;;;;;;;6.82;6.22;;;;;;;14.63;100.00;101542.44;6202221;23;20076;-70
2023/08/11 04:27:39;;;;;;;6.60;6.20;;;;;;;14.60;100.00;101494.22;6198492;23;20016;-71
2023/08/11 04:30:07;;;;;;;6.63;6.15;;;;;;;14.76;100.00;101472.13;6148699;23;20025;-71
2023/08/11 04:32:34;;;;;;;11.00;6.93;;;;;;;15.22;100.00;101487.09;6179260;23;20032;-71
2023/08/11 04:35:01;;;;;;;6.75;6.25;;;;;;;15.34;100.00;101448.50;6193126;23;20091;-72
2023/08/11 04:37:27;;;;;;;7.32;6.82;;;;;;;15.84;100.00;101470.19;6199173;23;20025;-71
2023/08/11 04:39:54;;;;;;;6.57;6.03;;;;;;;15.77;100.00;101410.66;6178034;23;20055;-71
2023/08/11 04:42:20;;;;;;;6.40;6.00;;;;;;;16.16;100.00;101425.81;6199921;23;20500;-71
2023/08/11 04:44:47;;;;;;;6.40;5.90;;;;;;;16.32;100.00;101410.63;6198781;23;20445;-70
2023/08/11 04:47:13;;;;;;;7.03;6.50;;;;;;;16.56;100.00;101407.31;6196306;23;20080;-71
2023/08/11 04:49:41;;;;;;;6.85;6.25;;;;;;;16.46;100.00;101387.69;6169614;23;20020;-71
2023/08/11 04:52:09;;;;;;;7.07;6.57;;;;;;;16.30;100.00;101371.94;6172953;23;20099;-71
2023/08/11 04:54:36;;;;;;;6.85;6.32;;;;;;;16.48;100.00;101383.97;6193965;23;20028;-71
2023/08/11 04:57:03;;;;;;;6.95;5.90;;;;;;;16.44;100.00;101344.56;6199047;23;20031;-71
2023/08/11 04:59:29;;;;;;;6.53;6.13;;;;;;;16.83;100.00;101375.47;6199335;23;20048;-71
2023/08/11 05:01:55;;;;;;;6.80;6.40;;;;;;;16.54;100.00;101274.94;6205701;23;20087;-71
2023/08/11 05:04:22;;;;;;;7.05;6.53;;;;;;;17.03;99.81;101296.38;6202231;22;20080;-72
2023/08/11 05:06:48;;;;;;;7.03;6.15;;;;;;;17.53;96.41;101327.28;6173954;23;20095;-71
2023/08/11 05:09:14;;;;;;;6.60;6.20;;;;;;;16.43;94.99;101091.16;6202039;23;20323;-71
2023/08/11 05:11:41;;;;;;;10.45;6.45;;;;;;;17.69;92.92;101233.28;6174348;23;20077;-71
2023/08/11 05:14:07;;;;;;;9.57;6.47;;;;;;;18.39;90.71;101298.91;6205828;23;20016;-72
2023/08/11 05:16:34;;;;;;;9.25;6.38;;;;;;;18.55;87.42;101250.75;6198150;23;20020;-71
2023/08/11 05:19:00;;;;;;;6.63;6.22;;;;;;;18.92;86.48;101250.56;6202689;23;20004;-73
2023/08/11 05:21:27;;;;;;;6.40;6.00;;;;;;;19.02;82.72;101198.31;6179853;23;20040;-72
2023/08/11 05:23:53;;;;;;;7.05;6.40;;;;;;;19.06;81.67;101188.28;6202612;23;20039;-71
2023/08/11 05:26:20;;;;;;;6.72;6.22;;;;;;;19.35;81.15;101191.28;6171214;23;20030;-72
2023/08/11 05:28:46;;;;;;;6.90;6.40;;;;;;;19.22;78.87;101110.72;6175176;23;20020;-73
2023/08/11 05:31:12;;;;;;;6.60;6.20;;;;;;;19.37;78.39;101140.59;6192349;23;20532;-71
2023/08/11 05:33:39;;;;;;;7.30;6.53;;;;;;;19.46;77.05;101119.34;6174302;23;20032;-72
2023/08/11 05:36:05;;;;;;;6.88;6.45;;;;;;;19.48;76.65;101106.78;6201794;23;20016;-72
2023/08/11 05:38:31;;;;;;;7.00;6.40;;;;;;;19.63;75.62;101085.16;6202900;22;20482;-71
2023/08/11 05:40:58;;;;;;;7.25;6.50;;;;;;;19.82;75.57;101111.09;6183757;23;20042;-72
2023/08/11 05:43:24;;;;;;;6.78;6.28;;;;;;;20.11;73.63;101076.66;6202798;23;20067;-72
2023/08/11 05:45:51;;;;;;;6.80;6.30;;;;;;;19.98;74.96;101110.66;6201596;23;20470;-72
2023/08/11 05:48:17;;;;;;;7.25;6.65;;;;;;;20.20;73.03;101070.50;6204448;23;20106;-71
2023/08/11 05:50:47;;;;;;;8.18;6.47;;;;;;;20.03;72.73;101016.03;6198137;23;20572;-71
2023/08/11 05:53:13;;;;;;;7.00;6.50;;;;;;;20.44;72.35;101078.16;6202937;23;20048;-72
2023/08/11 05:55:39;;;;;;;6.28;5.88;;;;;;;20.72;70.60;101051.75;6198569;23;20044;-72
2023/08/11 05:58:06;;;;;;;6.60;6.10;;;;;;;20.12;70.81;100961.06;6169396;23;20081;-73
2023/08/11 06:00:33;;;;;;;6.90;6.40;;;;;;;20.30;69.68;100948.78;6194598;23;20201;-70
2023/08/11 06:02:59;;;;;;;6.68;6.28;;;;;;;20.23;70.11;100958.31;6200721;23;20592;-70
2023/08/11 06:05:26;;;;;;;6.30;5.88;;;;;;;20.25;70.40;100985.69;6200086;23;20032;-70
2023/08/11 06:07:53;;;;;;;7.45;6.85;;;;;;;20.27;69.88;100958.91;6202686;22;20016;-72
2023/08/11 06:10:32;;;;;;;7.03;6.53;;;;;;;20.13;71.07;100995.59;6203066;22;20080;-70
2023/08/11 06:12:58;;;;;;;6.90;6.40;;;;;;;19.93;71.74;100997.34;6195825;23;20076;-72
2023/08/11 06:15:25;;;;;;;7.35;6.38;;;;;;;19.85;73.46;101066.41;6071241;23;20467;-71
2023/08/11 06:17:51;;;;;;;6.85;6.22;;;;;;;19.90;74.83;101103.31;6194688;23;20032;-70
2023/08/11 06:20:18;;;;;;;6.60;6.20;;;;;;;19.61;74.88;101071.13;6194223;23;20505;-70
2023/08/11 06:23:04;;;;;;;6.53;6.13;;;;;;;19.38;75.64;101083.69;6196470;23;20016;-71
2023/08/11 06:25:31;;;;;;;7.03;6.43;;;;;;;18.98;75.92;101050.59;6197553;23;20020;-72
2023/08/11 06:27:57;;;;;;;6.90;6.40;;;;;;;19.24;77.18;101138.06;6201991;23;20439;-71
2023/08/11 06:30:24;;;;;;;7.15;6.55;;;;;;;18.93;75.76;101056.28;6203862;23;20556;-71
2023/08/11 06:32:50;;;;;;;6.60;6.18;;;;;;;19.19;76.51;101108.34;6198997;23;20611;-71
2023/08/11 06:35:17;;;;;;;6.55;6.15;;;;;;;19.25;74.90;101082.06;6198197;23;20532;-71
2023/08/11 06:37:43;;;;;;;6.72;6.32;;;;;;;19.27;74.47;101081.94;6175117;23;20087;-71
2023/08/11 06:40:11;;;;;;;7.30;6.60;;;;;;;18.83;75.15;101043.88;6203451;23;20024;-71
2023/08/11 06:42:38;;;;;;;8.10;7.43;;;;;;;19.32;74.86;101101.88;6202600;23;20000;-71
2023/08/11 06:45:05;;;;;;;7.05;6.47;;;;;;;19.55;74.30;101103.59;6201838;23;20035;-71
2023/08/11 06:47:33;;;;;;;7.10;6.60;;;;;;;19.75;73.45;101105.47;6198129;23;20037;-71
2023/08/11 06:50:00;;;;;;;6.93;6.43;;;;;;;19.68;73.63;101072.28;6200303;23;20035;-70
2023/08/11 06:52:27;;;;;;;6.63;6.22;;;;;;;19.82;73.34;101093.28;6202895;23;20012;-70
2023/08/11 06:54:53;;;;;;;7.18;6.68;;;;;;;19.96;73.54;101123.25;6197307;23;20031;-70
2023/08/11 06:57:20;;;;;;;7.28;6.47;;;;;;;20.17;72.92;101102.75;6202702;23;20000;-71
2023/08/11 06:59:47;;;;;;;6.90;6.40;;;;;;;20.02;71.16;101026.81;6201494;23;20032;-70
2023/08/11 07:02:14;;;;;;;6.65;6.15;;;;;;;20.10;70.26;101000.34;6173119;23;20078;-70
2023/08/11 07:04:40;;;;;;;7.15;6.65;;;;;;;20.17;70.79;101033.47;6172402;23;20047;-70
2023/08/11 07:07:07;;;;;;;7.68;7.07;;;;;;;20.27;68.19;100975.72;6194849;23;20036;-71
2023/08/11 07:09:34;;;;;;;6.93;6.43;;;;;;;20.65;69.20;101064.81;6179722;23;20083;-70
2023/08/11 07:12:00;;;;;;;7.03;6.43;;;;;;;20.33;67.51;100977.00;6201961;23;20090;-71
2023/08/11 07:14:27;;;;;;;6.50;6.10;;;;;;;20.19;68.59;100998.72;6161626;23;20602;-71
2023/08/11 07:16:53;;;;;;;6.93;6.38;;;;;;;20.81;68.62;101087.47;6170646;23;20748;-71
2023/08/11 07:19:20;;;;;;;7.07;6.32;;;;;;;20.89;67.94;101052.94;6179771;23;20032;-70
2023/08/11 07:21:46;;;;;;;7.03;6.53;;;;;;;21.09;67.59;101064.47;6191778;23;20055;-71
2023/08/11 07:24:13;;;;;;;6.50;6.10;;;;;;;20.90;65.57;100959.38;6174556;23;20009;-71
2023/08/11 07:26:39;;;;;;;6.70;6.20;;;;;;;21.17;65.09;100983.66;6198684;23;20039;-71
2023/08/11 07:29:06;;;;;;;7.55;6.95;;;;;;;20.85;66.20;100987.50;6167343;23;20087;-71
2023/08/11 07:31:32;;;;;;;7.28;6.65;;;;;;;21.27;65.35;101019.22;6172375;23;20047;-71
2023/08/11 07:33:58;;;;;;;12.27;10.18;;;;;;;21.21;65.17;101009.09;6200426;23;20033;-71
2023/08/11 07:36:25;;;;;;;8.23;7.32;;;;;;;21.30;65.46;101029.59;6194651;23;20012;-70
2023/08/11 07:38:51;;;;;;;7.28;6.50;;;;;;;21.37;64.87;101025.41;6194595;23;20447;-70
2023/08/11 07:41:21;;;;;;;7.07;6.47;;;;;;;21.61;64.56;101049.00;6178141;23;20036;-71
2023/08/11 07:43:47;;;;;;;7.20;6.63;;;;;;;21.57;64.45;101028.03;6196053;23;20016;-70
2023/08/11 07:46:16;;;;;;;7.78;7.18;;;;;;;21.73;63.49;101011.41;6177597;23;20043;-71
2023/08/11 07:48:43;;;;;;;8.75;6.90;;;;;;;21.94;64.08;101065.50;6195486;23;20016;-71
2023/08/11 07:51:09;;;;;;;7.68;6.45;;;;;;;20.78;61.84;100788.97;6195398;23;20023;-70
2023/08/11 07:53:38;;;;;;;9.00;6.85;;;;;;;21.59;63.26;100975.31;6195324;23;20028;-70
2023/08/11 07:56:04;;;;;;;6.70;6.20;;;;;;;21.96;62.16;100983.34;6195611;23;20044;-72
2023/08/11 07:58:31;;;;;;;6.90;6.40;;;;;;;21.83;61.36;100942.75;6164790;23;20082;-71
2023/08/11 08:00:58;;;;;;;7.95;7.40;;;;;;;22.29;62.23;101046.16;6197258;23;20025;-70
2023/08/11 08:03:24;;;;;;;7.15;6.65;;;;;;;22.22;61.03;100975.50;6178226;23;20016;-71
2023/08/11 08:05:51;;;;;;;7.30;6.60;;;;;;;22.52;61.23;101005.63;6195039;23;20120;-70
2023/08/11 08:08:17;;;;;;;7.40;6.68;;;;;;;22.39;61.27;101002.44;6175661;23;20095;-70
2023/08/11 08:10:44;;;;;;;7.70;7.00;;;;;;;22.25;61.15;100953.00;6172908;23;20052;-70
2023/08/11 08:13:10;;;;;;;6.97;6.47;;;;;;;22.83;61.26;101064.13;6193230;23;20026;-70
2023/08/11 08:15:37;;;;;;;6.90;6.30;;;;;;;22.67;61.25;101014.81;6197497;23;20086;-72
2023/08/11 08:18:04;;;;;;;7.25;6.53;;;;;;;22.78;61.21;101032.47;6170257;23;20035;-71
2023/08/11 08:20:31;;;;;;;8.23;6.70;;;;;;;23.17;61.09;101076.88;6195619;23;20017;-74
2023/08/11 08:22:57;;;;;;;7.20;6.47;;;;;;;23.30;60.85;101071.97;6178899;23;20024;-72
2023/08/11 08:25:24;;;;;;;7.03;6.30;;;;;;;22.94;59.48;100969.41;6197140;23;20839;-71
2023/08/11 08:27:50;;;;;;;7.30;6.80;;;;;;;23.16;59.16;100976.16;6192961;23;20020;-72
2023/08/11 08:30:33;;;;;;;7.03;6.57;;;;;;;23.48;59.83;101067.44;6172593;23;20020;-72
2023/08/11 08:32:59;;;;;;;6.85;6.25;;;;;;;23.85;59.54;101087.00;6194179;23;20072;-72
2023/08/11 08:35:26;;;;;;;6.55;6.10;;;;;;;23.84;59.07;101059.34;6173944;23;20382;-73
2023/08/11 08:37:52;;;;;;;8.30;7.60;;;;;;;24.12;57.41;101008.22;6200074;23;20027;-73
2023/08/11 08:40:19;;;;;;;7.18;6.47;;;;;;;24.14;58.05;101029.53;6197089;23;20035;-73
2023/08/11 08:42:45;;;;;;;7.22;6.72;;;;;;;24.36;56.91;101044.22;6200062;23;20527;-73
2023/08/11 08:45:13;;;;;;;7.32;6.72;;;;;;;24.52;56.54;101030.03;6204101;23;20077;-73
2023/08/11 08:47:41;;;;;;;7.57;6.97;;;;;;;24.78;55.63;101024.56;6196262;23;20016;-72
2023/08/11 08:50:09;;;;;;;7.85;7.15;;;;;;;24.51;55.02;100921.03;6143515;23;20020;-72
2023/08/11 08:52:37;;;;;;;6.93;6.43;;;;;;;24.62;55.13;100951.06;6180376;23;20051;-71
2023/08/11 08:55:04;;;;;;;7.20;6.70;;;;;;;24.91;55.05;101019.53;6174241;23;20087;-71
2023/08/11 08:57:30;;;;;;;7.45;6.28;;;;;;;24.99;54.43;101006.13;6199928;23;20411;-70
2023/08/11 08:59:57;;;;;;;6.40;6.00;;;;;;;24.95;54.21;100963.66;6180783;23;20025;-71
2023/08/11 09:02:27;;;;;;;7.30;6.70;;;;;;;25.03;54.21;100966.34;6196997;23;20008;-75
2023/08/11 09:04:55;;;;;;;7.43;6.75;;;;;;;24.93;54.55;100957.63;6194418;23;20023;-70
2023/08/11 09:07:22;;;;;;;7.45;6.75;;;;;;;25.17;53.97;100997.06;6204990;23;20097;-70
2023/08/11 09:09:48;;;;;;;7.25;6.75;;;;;;;24.89;54.96;100989.31;6196063;23;20028;-71
2023/08/11 09:12:15;;;;;;;7.10;6.57;;;;;;;25.38;53.99;100993.88;6195904;23;20122;-70
2023/08/11 09:14:42;;;;;;;6.97;6.47;;;;;;;25.58;53.39;101002.41;6170710;23;20029;-70
2023/08/11 09:17:09;;;;;;;7.30;6.55;;;;;;;25.77;53.13;101022.72;6194767;23;20076;-75
2023/08/11 09:19:36;;;;;;;7.38;6.85;;;;;;;25.85;52.52;100988.56;6196559;23;20039;-73
2023/08/11 09:22:09;;;;;;;6.85;6.32;;;;;;;25.92;53.19;101018.34;6187697;23;20016;-74
2023/08/11 09:24:37;;;;;;;7.40;6.80;;;;;;;26.07;53.03;101043.47;6174740;23;20027;-75
2023/08/11 09:27:04;;;;;;;10.93;6.50;;;;;;;26.22;52.23;101014.03;6196034;23;20043;-74
2023/08/11 09:29:30;;;;;;;7.25;6.65;;;;;;;26.01;51.93;100959.97;6176831;23;20040;-74
2023/08/11 09:31:57;;;;;;;6.88;6.38;;;;;;;26.51;51.48;101012.50;6196902;23;20028;-71
2023/08/11 09:34:23;;;;;;;7.30;6.70;;;;;;;26.72;50.69;100994.91;6197435;23;20026;-72
2023/08/11 09:36:50;;;;;;;7.25;6.70;;;;;;;26.64;48.15;100834.28;6200623;23;20230;-70
2023/08/11 09:39:17;;;;;;;9.23;8.05;;;;;;;26.60;49.85;100952.28;6196254;23;20091;-72
2023/08/11 09:41:48;;;;;;;6.97;6.38;;;;;;;26.86;50.12;101008.47;6168538;23;20028;-74
2023/08/11 09:44:17;;;;;;;7.03;6.35;;;;;;;26.97;49.21;100966.78;6179217;23;20031;-71
2023/08/11 09:46:44;;;;;;;7.07;6.68;;;;;;;26.81;47.82;100881.59;6200824;23;20037;-72
2023/08/11 09:49:12;;;;;;;7.20;6.60;;;;;;;27.05;48.29;100964.03;6200837;23;20020;-72
2023/08/11 09:51:39;;;;;;;7.15;6.45;;;;;;;27.17;47.94;100960.91;6171461;23;20124;-73
2023/08/11 09:54:10;;;;;;;6.88;6.40;;;;;;;27.33;48.92;101016.53;6201548;23;20453;-71
2023/08/11 09:56:40;;;;;;;6.68;6.13;;;;;;;26.90;47.10;100858.09;6200791;23;20043;-71
2023/08/11 09:59:14;;;;;;;6.63;6.20;;;;;;;27.24;46.55;100906.13;6148175;23;20024;-70
2023/08/11 10:01:44;;;;;;;7.13;6.63;;;;;;;27.32;47.64;100982.50;6195843;23;20038;-70
2023/08/11 10:04:18;;;;;;;9.95;6.43;;;;;;;27.13;47.04;100913.78;6200359;23;20016;-70
2023/08/11 10:06:50;;;;;;;6.80;6.30;;;;;;;27.44;47.32;100979.19;6202799;23;20053;-70
2023/08/11 10:09:22;;;;;;;6.82;6.43;;;;;;;27.72;47.06;100994.72;6197991;23;20012;-70
2023/08/11 10:11:49;;;;;;;6.97;6.47;;;;;;;27.61;46.92;100966.38;6196894;23;20047;-70
2023/08/11 10:14:18;;;;;;;7.20;6.70;;;;;;;27.89;45.59;100929.84;6167631;23;20019;-69
2023/08/11 10:16:47;;;;;;;6.80;6.30;;;;;;;27.96;44.84;100909.16;6196508;23;20589;-69
2023/08/11 10:19:14;;;;;;;7.30;6.80;;;;;;;28.21;46.14;101050.84;6199275;23;20079;-70
2023/08/11 10:21:40;;;;;;;6.78;6.28;;;;;;;27.89;46.43;100994.59;6196159;23;20055;-70
2023/08/11 10:24:07;;;;;;;6.75;6.35;;;;;;;28.16;46.67;101037.06;6199262;23;20083;-69
2023/08/11 10:26:35;;;;;;;7.03;6.53;;;;;;;28.04;45.58;100993.56;6197482;23;20031;-70
2023/08/11 10:29:02;;;;;;;6.55;6.18;;;;;;;28.01;44.79;100966.94;6175168;23;20008;-70
2023/08/11 10:31:32;;;;;;;8.70;6.50;;;;;;;28.18;44.62;100970.25;6195230;23;20026;-70
2023/08/11 10:34:05;;;;;;;8.93;7.07;;;;;;;28.71;45.06;101064.56;6164748;23;20192;-70
2023/08/11 10:36:32;;;;;;;6.70;6.20;;;;;;;28.86;44.36;101061.81;6203712;23;20024;-70
2023/08/11 10:39:04;;;;;;;6.90;6.40;;;;;;;29.18;44.16;101063.19;6198171;23;20020;-69
2023/08/11 10:41:31;;;;;;;7.00;6.57;;;;;;;28.81;43.22;100964.31;6199873;23;20111;-69
2023/08/11 10:43:58;;;;;;;6.80;6.30;;;;;;;28.86;43.04;100985.34;6198123;23;20019;-68
2023/08/11 10:46:27;;;;;;;6.85;6.13;;;;;;;28.32;43.39;100975.81;6198113;23;20087;-69
2023/08/11 10:48:58;;;;;;;7.45;6.50;;;;;;;28.86;43.67;101048.28;6198995;23;20642;-69
2023/08/11 10:51:39;;;;;;;6.90;5.95;;;;;;;29.16;43.08;101056.31;6200091;23;20084;-69
2023/08/11 10:54:06;;;;;;;6.57;6.18;;;;;;;29.20;41.27;100969.22;6196178;23;20087;-69
2023/08/11 10:56:34;;;;;;;6.60;6.10;;;;;;;28.34;42.28;100901.69;6168682;23;20099;-70
2023/08/11 10:59:16;;;;;;;6.25;5.95;;;;;;;29.33;43.06;101046.91;6198012;23;20133;-70
2023/08/11 11:01:45;;;;;;;6.75;6.25;;;;;;;29.40;41.77;101009.09;6197153;23;20091;-70
2023/08/11 11:04:12;;;;;;;7.07;6.57;;;;;;;29.71;41.29;101038.47;6196567;23;20019;-70
2023/08/11 11:06:40;;;;;;;6.70;6.10;;;;;;;29.95;40.68;101039.03;6198312;23;20137;-74
2023/08/11 11:09:10;;;;;;;7.03;6.53;;;;;;;29.72;40.16;101007.69;6201794;23;20020;-70
2023/08/11 11:11:36;;;;;;;6.72;6.28;;;;;;;29.66;41.44;101032.78;6201855;23;20026;-70
2023/08/11 11:14:04;;;;;;;7.00;6.50;;;;;;;29.66;40.85;100989.50;6198204;23;20016;-69
2023/08/11 11:16:32;;;;;;;6.63;6.22;;;;;;;29.77;41.00;100978.16;6198909;23;20385;-70
2023/08/11 11:19:00;;;;;;;6.55;6.10;;;;;;;30.13;39.80;100981.63;6175058;23;20062;-70
2023/08/11 11:21:27;;;;;;;6.72;6.22;;;;;;;29.88;40.15;101011.09;6198980;23;20048;-70
2023/08/11 11:23:54;;;;;;;6.57;6.18;;;;;;;29.82;40.33;100964.84;6197961;23;20409;-69